PWSweather.com
Personal Weather Stations
Station Observations
PENICUIKWS
PenicuikGB

PenicuikGB

Lat: 55.830932, Lon: -3.224533000000065

Elevation: 166

Station Type: Fine Offset

http://weather.penicuik.org

High Low Average
Temperature 38.5°F3.6°C 29.8°F-1.2°C 33.0°F0.6°C
Dew Point 35.4°F1.9°C 26.7°F-2.9°C 29.0°F-1.7°C
Winds 5.7 mph 9.2 kmh Calm Calm 2.0 mph SSW3.2 kmh SSW
Wind Gusts 12.1 mph19.5 kmh -- 4.0 mph6.4 kmh
Humidity 91% 78% 85%
Pressure 29.06 in984.1 mb 28.99 in981.7 mb -
Precipitation 0.01 in0.3 mm - -
Hour Temp Dew Point Humidity Winds Wind Gusts Pressure Precip Precip Rate Daily Precip Total
12:15 AM 35.1°F1.7°C 30.7°F-0.7°C 84% 2.0 mph WSW3.2 kmh WSW 3.8 mph6.1 kmh 29.04 in983.4 mb 0.01 in0.3 mm 0.04 in1.0 mm 0.01 in0.3 mm
12:30 AM 34.5°F1.4°C 30.2°F-1.0°C 84% 3.0 mph S4.8 kmh S 6.0 mph9.7 kmh 29.04 in983.4 mb 0.01 in0.3 mm 0.00 in0.0 mm 0.01 in0.3 mm
12:45 AM 34.2°F1.2°C 30.1°F-1.1°C 85% 4.8 mph WSW7.7 kmh WSW 7.6 mph12.2 kmh 29.02 in982.7 mb 0.01 in0.3 mm 0.00 in0.0 mm 0.01 in0.3 mm
01:00 AM 34.0°F1.1°C 30.0°F-1.1°C 85% 2.9 mph S4.7 kmh S 4.5 mph7.2 kmh 29.02 in982.7 mb 0.01 in0.3 mm 0.00 in0.0 mm 0.01 in0.3 mm
01:15 AM 34.2°F1.2°C 30.1°F-1.1°C 85% 3.4 mph S5.5 kmh S 5.4 mph8.7 kmh 29.03 in983.1 mb 0.00 in0.0 mm 0.00 in0.0 mm 0.01 in0.3 mm
01:30 AM 33.6°F0.9°C 29.9°F-1.2°C 86% 1.3 mph NNE2.1 kmh NNE 2.2 mph3.5 kmh 29.02 in982.7 mb 0.00 in0.0 mm 0.00 in0.0 mm 0.01 in0.3 mm
01:45 AM 33.3°F0.7°C 29.5°F-1.4°C 86% 2.2 mph SW3.5 kmh SW 4.5 mph7.2 kmh 29.03 in983.1 mb 0.00 in0.0 mm 0.00 in0.0 mm 0.01 in0.3 mm
02:00 AM 33.1°F0.6°C 29.4°F-1.4°C 86% 1.6 mph NNE2.6 kmh NNE 3.8 mph6.1 kmh 29.02 in982.7 mb 0.00 in0.0 mm 0.00 in0.0 mm 0.01 in0.3 mm
02:45 AM 33.4°F0.8°C 29.7°F-1.3°C 86% 3.9 mph SE6.3 kmh SE 8.3 mph13.4 kmh 29.03 in983.1 mb 0.00 in0.0 mm 0.00 in0.0 mm 0.01 in0.3 mm
03:00 AM 33.8°F1.0°C 29.8°F-1.2°C 85% 2.6 mph SW4.2 kmh SW 5.4 mph8.7 kmh 29.04 in983.4 mb 0.00 in0.0 mm 0.00 in0.0 mm 0.01 in0.3 mm
03:15 AM 34.0°F1.1°C 29.7°F-1.3°C 84% 2.3 mph SSE3.7 kmh SSE 3.8 mph6.1 kmh 29.04 in983.4 mb 0.00 in0.0 mm 0.00 in0.0 mm 0.01 in0.3 mm
03:30 AM 33.4°F0.8°C 29.4°F-1.4°C 85% 2.0 mph SW3.2 kmh SW 3.1 mph5.0 kmh 29.03 in983.1 mb 0.00 in0.0 mm 0.00 in0.0 mm 0.01 in0.3 mm
03:45 AM 33.3°F0.7°C 29.3°F-1.5°C 85% 2.8 mph SSW4.5 kmh SSW 5.4 mph8.7 kmh 29.02 in982.7 mb 0.00 in0.0 mm 0.00 in0.0 mm 0.01 in0.3 mm
04:00 AM 33.4°F0.8°C 29.7°F-1.3°C 86% 2.7 mph S4.3 kmh S 6.9 mph11.1 kmh 29.04 in983.4 mb 0.00 in0.0 mm 0.00 in0.0 mm 0.01 in0.3 mm
04:15 AM 33.8°F1.0°C 29.8°F-1.2°C 85% 2.9 mph SW4.7 kmh SW 3.8 mph6.1 kmh 29.03 in983.1 mb 0.00 in0.0 mm 0.00 in0.0 mm 0.01 in0.3 mm
04:30 AM 33.8°F1.0°C 29.5°F-1.4°C 84% 2.2 mph S3.5 kmh S 3.1 mph5.0 kmh 29.02 in982.7 mb 0.00 in0.0 mm 0.00 in0.0 mm 0.01 in0.3 mm
04:45 AM 33.6°F0.9°C 29.6°F-1.3°C 85% 3.1 mph WSW5.0 kmh WSW 6.0 mph9.7 kmh 29.02 in982.7 mb 0.00 in0.0 mm 0.00 in0.0 mm 0.01 in0.3 mm
05:00 AM 33.4°F0.8°C 29.1°F-1.6°C 84% 2.5 mph SW4.0 kmh SW 3.8 mph6.1 kmh 29.02 in982.7 mb 0.00 in0.0 mm 0.00 in0.0 mm 0.01 in0.3 mm
05:15 AM 33.3°F0.7°C 28.7°F-1.8°C 83% 4.1 mph SW6.6 kmh SW 6.9 mph11.1 kmh 29.02 in982.7 mb 0.00 in0.0 mm 0.00 in0.0 mm 0.01 in0.3 mm
05:30 AM 33.1°F0.6°C 28.5°F-1.9°C 83% 2.9 mph S4.7 kmh S 5.4 mph8.7 kmh 29.03 in983.1 mb 0.00 in0.0 mm 0.00 in0.0 mm 0.01 in0.3 mm
06:00 AM 33.3°F0.7°C 28.7°F-1.8°C 83% 1.9 mph NW3.1 kmh NW 3.1 mph5.0 kmh 29.03 in983.1 mb 0.00 in0.0 mm 0.00 in0.0 mm 0.01 in0.3 mm
06:15 AM 33.1°F0.6°C 28.8°F-1.8°C 84% 1.6 mph NW2.6 kmh NW 2.2 mph3.5 kmh 29.02 in982.7 mb 0.00 in0.0 mm 0.00 in0.0 mm 0.01 in0.3 mm
06:30 AM 32.9°F0.5°C 28.6°F-1.9°C 84% 2.5 mph W4.0 kmh W 3.8 mph6.1 kmh 29.02 in982.7 mb 0.00 in0.0 mm 0.00 in0.0 mm 0.01 in0.3 mm
06:45 AM 33.6°F0.9°C 29.6°F-1.3°C 85% 2.7 mph WSW4.3 kmh WSW 4.5 mph7.2 kmh 29.03 in983.1 mb 0.00 in0.0 mm 0.00 in0.0 mm 0.01 in0.3 mm
07:00 AM 33.8°F1.0°C 29.8°F-1.2°C 85% 2.5 mph WSW4.0 kmh WSW 3.1 mph5.0 kmh 29.04 in983.4 mb 0.00 in0.0 mm 0.00 in0.0 mm 0.01 in0.3 mm
07:15 AM 33.8°F1.0°C 29.8°F-1.2°C 85% 2.3 mph WSW3.7 kmh WSW 3.8 mph6.1 kmh 29.05 in983.7 mb 0.00 in0.0 mm 0.00 in0.0 mm 0.01 in0.3 mm
07:30 AM 33.8°F1.0°C 29.8°F-1.2°C 85% 1.5 mph SW2.4 kmh SW 2.2 mph3.5 kmh 29.05 in983.7 mb 0.00 in0.0 mm 0.00 in0.0 mm 0.01 in0.3 mm
08:00 AM 33.6°F0.9°C 30.2°F-1.0°C 87% 1.8 mph SW2.9 kmh SW 6.0 mph9.7 kmh 29.04 in983.4 mb 0.00 in0.0 mm 0.00 in0.0 mm 0.01 in0.3 mm
08:15 AM 33.6°F0.9°C 29.9°F-1.2°C 86% 2.0 mph S3.2 kmh S 3.1 mph5.0 kmh 29.04 in983.4 mb 0.00 in0.0 mm 0.00 in0.0 mm 0.01 in0.3 mm
08:30 AM 33.3°F0.7°C 29.5°F-1.4°C 86% 1.4 mph S2.3 kmh S 2.2 mph3.5 kmh 29.05 in983.7 mb 0.00 in0.0 mm 0.00 in0.0 mm 0.01 in0.3 mm
08:45 AM 33.6°F0.9°C 29.9°F-1.2°C 86% 1.6 mph S2.6 kmh S 2.2 mph3.5 kmh 29.04 in983.4 mb 0.00 in0.0 mm 0.00 in0.0 mm 0.01 in0.3 mm
09:00 AM 33.6°F0.9°C 29.9°F-1.2°C 86% 2.4 mph WSW3.9 kmh WSW 4.5 mph7.2 kmh 29.05 in983.7 mb 0.00 in0.0 mm 0.00 in0.0 mm 0.01 in0.3 mm
09:15 AM 33.6°F0.9°C 29.9°F-1.2°C 86% 1.9 mph SSW3.1 kmh SSW 3.8 mph6.1 kmh 29.06 in984.1 mb 0.00 in0.0 mm 0.00 in0.0 mm 0.01 in0.3 mm
09:30 AM 33.4°F0.8°C 30.0°F-1.1°C 87% Calm Calm -- 29.05 in983.7 mb 0.00 in0.0 mm 0.00 in0.0 mm 0.01 in0.3 mm
09:45 AM 33.6°F0.9°C 30.2°F-1.0°C 87% Calm Calm -- 29.05 in983.7 mb 0.00 in0.0 mm 0.00 in0.0 mm 0.01 in0.3 mm
10:00 AM 33.8°F1.0°C 30.4°F-0.9°C 87% Calm Calm -- 29.05 in983.7 mb 0.00 in0.0 mm 0.00 in0.0 mm 0.01 in0.3 mm
10:15 AM 34.2°F1.2°C 30.7°F-0.7°C 87% Calm Calm -- 29.06 in984.1 mb 0.00 in0.0 mm 0.00 in0.0 mm 0.01 in0.3 mm
10:30 AM 34.2°F1.2°C 30.7°F-0.7°C 87% Calm Calm -- 29.05 in983.7 mb 0.00 in0.0 mm 0.00 in0.0 mm 0.01 in0.3 mm
10:45 AM 34.2°F1.2°C 30.7°F-0.7°C 87% 1.3 mph N2.1 kmh N 3.8 mph6.1 kmh 29.05 in983.7 mb 0.00 in0.0 mm 0.00 in0.0 mm 0.01 in0.3 mm
11:00 AM 34.2°F1.2°C 30.7°F-0.7°C 87% 1.6 mph WNW2.6 kmh WNW 4.5 mph7.2 kmh 29.05 in983.7 mb 0.00 in0.0 mm 0.00 in0.0 mm 0.01 in0.3 mm
11:15 AM 37.8°F3.2°C 35.4°F1.9°C 91% 2.4 mph W3.9 kmh W 6.0 mph9.7 kmh 29.05 in983.7 mb 0.00 in0.0 mm 0.00 in0.0 mm 0.01 in0.3 mm
11:30 AM 38.5°F3.6°C 34.1°F1.2°C 84% 3.1 mph N5.0 kmh N 5.4 mph8.7 kmh 29.04 in983.4 mb 0.00 in0.0 mm 0.00 in0.0 mm 0.01 in0.3 mm
11:45 AM 35.4°F1.9°C 29.3°F-1.5°C 78% 3.8 mph NW6.1 kmh NW 6.9 mph11.1 kmh 29.04 in983.4 mb 0.00 in0.0 mm 0.00 in0.0 mm 0.01 in0.3 mm
12:00 PM 34.9°F1.6°C 29.4°F-1.4°C 80% 4.0 mph NNW6.4 kmh NNW 12.1 mph19.5 kmh 29.04 in983.4 mb 0.00 in0.0 mm 0.00 in0.0 mm 0.01 in0.3 mm
12:15 PM 34.9°F1.6°C 29.7°F-1.3°C 81% 3.8 mph NNW6.1 kmh NNW 6.9 mph11.1 kmh 29.04 in983.4 mb 0.00 in0.0 mm 0.00 in0.0 mm 0.01 in0.3 mm
12:30 PM 34.7°F1.5°C 29.8°F-1.2°C 82% 3.4 mph NE5.5 kmh NE 7.6 mph12.2 kmh 29.05 in983.7 mb 0.00 in0.0 mm 0.00 in0.0 mm 0.01 in0.3 mm
12:45 PM 33.8°F1.0°C 28.6°F-1.9°C 81% 4.8 mph NW7.7 kmh NW 6.9 mph11.1 kmh 29.04 in983.4 mb 0.00 in0.0 mm 0.00 in0.0 mm 0.01 in0.3 mm
01:00 PM 33.8°F1.0°C 28.6°F-1.9°C 81% 2.5 mph N4.0 kmh N 5.4 mph8.7 kmh 29.04 in983.4 mb 0.00 in0.0 mm 0.00 in0.0 mm 0.01 in0.3 mm
01:15 PM 34.3°F1.3°C 29.1°F-1.6°C 81% 2.6 mph N4.2 kmh N 3.8 mph6.1 kmh 29.03 in983.1 mb 0.00 in0.0 mm 0.00 in0.0 mm 0.01 in0.3 mm
01:30 PM 34.9°F1.6°C 29.4°F-1.4°C 80% 2.9 mph N4.7 kmh N 4.5 mph7.2 kmh 29.02 in982.7 mb 0.00 in0.0 mm 0.00 in0.0 mm 0.01 in0.3 mm
01:45 PM 34.0°F1.1°C 28.2°F-2.1°C 79% 3.0 mph NNW4.8 kmh NNW 6.9 mph11.1 kmh 29.01 in982.4 mb 0.00 in0.0 mm 0.00 in0.0 mm 0.01 in0.3 mm
02:00 PM 33.8°F1.0°C 28.0°F-2.2°C 79% 3.1 mph NNE5.0 kmh NNE 6.0 mph9.7 kmh 29.01 in982.4 mb 0.00 in0.0 mm 0.00 in0.0 mm 0.01 in0.3 mm
02:15 PM 33.8°F1.0°C 28.0°F-2.2°C 79% 3.8 mph NW6.1 kmh NW 7.6 mph12.2 kmh 29.00 in982.1 mb 0.00 in0.0 mm 0.00 in0.0 mm 0.01 in0.3 mm
02:30 PM 33.8°F1.0°C 28.0°F-2.2°C 79% 3.3 mph NNW5.3 kmh NNW 5.4 mph8.7 kmh 29.00 in982.1 mb 0.00 in0.0 mm 0.00 in0.0 mm 0.01 in0.3 mm
02:45 PM 33.4°F0.8°C 28.0°F-2.2°C 80% 5.7 mph NNW9.2 kmh NNW 10.7 mph17.2 kmh 29.01 in982.4 mb 0.00 in0.0 mm 0.00 in0.0 mm 0.01 in0.3 mm
03:00 PM 33.3°F0.7°C 28.1°F-2.2°C 81% 3.9 mph WNW6.3 kmh WNW 6.0 mph9.7 kmh 29.01 in982.4 mb 0.00 in0.0 mm 0.00 in0.0 mm 0.01 in0.3 mm
03:15 PM 33.1°F0.6°C 27.9°F-2.3°C 81% 4.6 mph NNW7.4 kmh NNW 9.8 mph15.8 kmh 29.01 in982.4 mb 0.00 in0.0 mm 0.00 in0.0 mm 0.01 in0.3 mm
03:30 PM 32.9°F0.5°C 28.0°F-2.2°C 82% 3.2 mph NNW5.1 kmh NNW 5.4 mph8.7 kmh 29.00 in982.1 mb 0.00 in0.0 mm 0.00 in0.0 mm 0.01 in0.3 mm
03:45 PM 32.7°F0.4°C 28.1°F-2.2°C 83% 3.6 mph N5.8 kmh N 6.9 mph11.1 kmh 28.99 in981.7 mb 0.00 in0.0 mm 0.00 in0.0 mm 0.01 in0.3 mm
04:00 PM 32.2°F0.1°C 27.9°F-2.3°C 84% 2.2 mph NNW3.5 kmh NNW 6.0 mph9.7 kmh 29.00 in982.1 mb 0.00 in0.0 mm 0.00 in0.0 mm 0.01 in0.3 mm
04:15 PM 31.6°F-0.2°C 27.7°F-2.4°C 85% 1.5 mph N2.4 kmh N 2.2 mph3.5 kmh 29.00 in982.1 mb 0.00 in0.0 mm 0.00 in0.0 mm 0.01 in0.3 mm
04:30 PM 32.0°F0.0°C 28.0°F-2.2°C 85% 1.6 mph N2.6 kmh N 3.1 mph5.0 kmh 29.00 in982.1 mb 0.00 in0.0 mm 0.00 in0.0 mm 0.01 in0.3 mm
04:45 PM 32.2°F0.1°C 28.2°F-2.1°C 85% 2.4 mph N3.9 kmh N 3.8 mph6.1 kmh 29.01 in982.4 mb 0.00 in0.0 mm 0.00 in0.0 mm 0.01 in0.3 mm
05:30 PM 32.4°F0.2°C 28.7°F-1.8°C 86% 1.7 mph NNW2.7 kmh NNW 2.2 mph3.5 kmh 29.01 in982.4 mb 0.00 in0.0 mm 0.00 in0.0 mm 0.01 in0.3 mm
05:45 PM 31.8°F-0.1°C 28.1°F-2.2°C 86% 1.4 mph N2.3 kmh N 3.8 mph6.1 kmh 28.99 in981.7 mb 0.00 in0.0 mm 0.00 in0.0 mm 0.01 in0.3 mm
06:00 PM 31.3°F-0.4°C 27.6°F-2.4°C 86% 1.4 mph N2.3 kmh N 2.2 mph3.5 kmh 29.00 in982.1 mb 0.00 in0.0 mm 0.00 in0.0 mm 0.01 in0.3 mm
06:15 PM 31.6°F-0.2°C 28.2°F-2.1°C 87% 2.0 mph N3.2 kmh N 3.1 mph5.0 kmh 29.00 in982.1 mb 0.00 in0.0 mm 0.00 in0.0 mm 0.01 in0.3 mm
06:45 PM 32.0°F0.0°C 28.3°F-2.1°C 86% 1.6 mph N2.6 kmh N 3.8 mph6.1 kmh 29.00 in982.1 mb 0.00 in0.0 mm 0.00 in0.0 mm 0.01 in0.3 mm
07:00 PM 32.0°F0.0°C 28.3°F-2.1°C 86% 2.7 mph NW4.3 kmh NW 3.8 mph6.1 kmh 29.01 in982.4 mb 0.00 in0.0 mm 0.00 in0.0 mm 0.01 in0.3 mm
07:15 PM 31.6°F-0.2°C 28.2°F-2.1°C 87% 2.3 mph NNW3.7 kmh NNW 3.8 mph6.1 kmh 29.00 in982.1 mb 0.00 in0.0 mm 0.00 in0.0 mm 0.01 in0.3 mm
07:30 PM 31.3°F-0.4°C 27.9°F-2.3°C 87% 1.7 mph N2.7 kmh N 2.2 mph3.5 kmh 29.00 in982.1 mb 0.00 in0.0 mm 0.00 in0.0 mm 0.01 in0.3 mm
07:45 PM 31.1°F-0.5°C 27.7°F-2.4°C 87% 1.2 mph N1.9 kmh N 2.2 mph3.5 kmh 29.01 in982.4 mb 0.00 in0.0 mm 0.00 in0.0 mm 0.01 in0.3 mm
08:00 PM 31.3°F-0.4°C 27.6°F-2.4°C 86% 1.2 mph N1.9 kmh N 1.6 mph2.6 kmh 29.01 in982.4 mb 0.00 in0.0 mm 0.00 in0.0 mm 0.01 in0.3 mm
08:30 PM 32.0°F0.0°C 28.3°F-2.1°C 86% 1.1 mph N1.8 kmh N 1.6 mph2.6 kmh 29.02 in982.7 mb 0.00 in0.0 mm 0.00 in0.0 mm 0.01 in0.3 mm
08:45 PM 32.0°F0.0°C 28.3°F-2.1°C 86% 1.4 mph N2.3 kmh N 2.2 mph3.5 kmh 29.00 in982.1 mb 0.00 in0.0 mm 0.00 in0.0 mm 0.01 in0.3 mm
09:00 PM 31.6°F-0.2°C 28.2°F-2.1°C 87% 0.5 mph N0.8 kmh N 0.7 mph1.1 kmh 29.01 in982.4 mb 0.00 in0.0 mm 0.00 in0.0 mm 0.01 in0.3 mm
09:15 PM 31.3°F-0.4°C 27.9°F-2.3°C 87% 1.2 mph N1.9 kmh N 2.2 mph3.5 kmh 29.00 in982.1 mb 0.00 in0.0 mm 0.00 in0.0 mm 0.01 in0.3 mm
09:30 PM 31.1°F-0.5°C 27.7°F-2.4°C 87% 1.7 mph N2.7 kmh N 3.1 mph5.0 kmh 29.02 in982.7 mb 0.00 in0.0 mm 0.00 in0.0 mm 0.01 in0.3 mm
09:45 PM 30.6°F-0.8°C 27.2°F-2.7°C 87% 1.2 mph NNE1.9 kmh NNE 2.2 mph3.5 kmh 29.02 in982.7 mb 0.00 in0.0 mm 0.00 in0.0 mm 0.01 in0.3 mm
10:00 PM 29.8°F-1.2°C 26.7°F-2.9°C 88% 1.0 mph NNE1.6 kmh NNE 2.2 mph3.5 kmh 29.03 in983.1 mb 0.00 in0.0 mm 0.00 in0.0 mm 0.01 in0.3 mm
10:15 PM 30.2°F-1.0°C 26.8°F-2.9°C 87% 1.4 mph N2.3 kmh N 3.8 mph6.1 kmh 29.03 in983.1 mb 0.00 in0.0 mm 0.00 in0.0 mm 0.01 in0.3 mm
10:30 PM 29.8°F-1.2°C 26.7°F-2.9°C 88% 1.1 mph NNE1.8 kmh NNE 2.2 mph3.5 kmh 29.03 in983.1 mb 0.00 in0.0 mm 0.00 in0.0 mm 0.01 in0.3 mm
10:45 PM 29.8°F-1.2°C 26.7°F-2.9°C 88% 0.8 mph N1.3 kmh N 1.6 mph2.6 kmh 29.04 in983.4 mb 0.00 in0.0 mm 0.00 in0.0 mm 0.01 in0.3 mm
11:00 PM 30.0°F-1.1°C 26.9°F-2.8°C 88% 1.3 mph N2.1 kmh N 2.2 mph3.5 kmh 29.05 in983.7 mb 0.00 in0.0 mm 0.00 in0.0 mm 0.01 in0.3 mm
11:15 PM 29.8°F-1.2°C 26.7°F-2.9°C 88% 1.3 mph N2.1 kmh N 1.6 mph2.6 kmh 29.05 in983.7 mb 0.00 in0.0 mm 0.00 in0.0 mm 0.01 in0.3 mm
11:30 PM 30.2°F-1.0°C 26.8°F-2.9°C 87% 1.7 mph N2.7 kmh N 3.1 mph5.0 kmh 29.05 in983.7 mb 0.00 in0.0 mm 0.00 in0.0 mm 0.01 in0.3 mm
11:45 PM 30.7°F-0.7°C 27.3°F-2.6°C 87% 0.9 mph N1.4 kmh N 2.2 mph3.5 kmh 29.05 in983.7 mb 0.00 in0.0 mm 0.00 in0.0 mm 0.01 in0.3 mm